createdAt,value
2022-08-05T00:00:48.411Z,99924.97
2022-08-05T00:06:04.736Z,99928.16
2022-08-05T00:11:20.498Z,99951.56
2022-08-05T00:16:36.254Z,99953.50
2022-08-05T00:21:53.990Z,99954.56
2022-08-05T00:26:57.047Z,99960.75
2022-08-05T00:32:10.495Z,99954.84
2022-08-05T00:37:15.306Z,99984.09
2022-08-05T00:42:32.252Z,100000.69
2022-08-05T00:47:56.783Z,100001.63
2022-08-05T00:52:55.551Z,100006.25
2022-08-05T00:57:58.907Z,99999.22
2022-08-05T01:03:00.675Z,99995.19
2022-08-05T01:08:31.645Z,99973.41
2022-08-05T01:13:58.823Z,99953.22
2022-08-05T01:19:11.046Z,99971.81
2022-08-05T01:24:52.142Z,99968.38
2022-08-05T01:30:00.074Z,99966.47
2022-08-05T01:35:10.342Z,99967.75
2022-08-05T01:40:17.914Z,99954.75
2022-08-05T01:45:21.703Z,99974.16
2022-08-05T01:50:32.557Z,99976.13
2022-08-05T01:55:36.479Z,99988.00
2022-08-05T02:00:42.623Z,99990.56
2022-08-05T02:05:46.386Z,99977.66
2022-08-05T02:10:53.971Z,99986.53
2022-08-05T02:16:04.021Z,100008.78
2022-08-05T02:21:14.925Z,100023.31
2022-08-05T02:26:22.386Z,100035.53
2022-08-05T02:31:28.430Z,100026.56
2022-08-05T02:36:39.177Z,100025.00
2022-08-05T02:41:58.125Z,100014.72
2022-08-05T02:47:09.077Z,100002.19
2022-08-05T02:52:29.589Z,99993.50
2022-08-05T02:58:10.222Z,99989.63
2022-08-05T03:02:55.756Z,99970.50
2022-08-05T03:08:06.828Z,99949.56
2022-08-05T03:13:17.845Z,99935.38
2022-08-05T03:18:29.889Z,99955.66
2022-08-05T03:23:32.599Z,99969.56
2022-08-05T03:28:36.427Z,99989.13
2022-08-05T03:33:51.333Z,100000.97
2022-08-05T03:38:54.882Z,100044.88
2022-08-05T03:44:08.074Z,100050.47
2022-08-05T03:49:11.567Z,100068.72
2022-08-05T03:55:50.066Z,100054.47
2022-08-05T04:00:01.739Z,100069.94
2022-08-05T04:05:05.696Z,100081.72
2022-08-05T04:10:11.419Z,100100.47
2022-08-05T04:15:19.048Z,100129.69
2022-08-05T04:20:25.840Z,100148.97
2022-08-05T04:25:56.428Z,100168.19
2022-08-05T04:30:49.140Z,100192.50
2022-08-05T04:36:15.829Z,100225.06
2022-08-05T04:41:13.002Z,100241.78
2022-08-05T04:46:15.113Z,100273.66
2022-08-05T04:51:30.346Z,100285.50
2022-08-05T04:56:35.162Z,100298.84
2022-08-05T05:02:07.177Z,100301.66
2022-08-05T05:07:00.041Z,100311.94
2022-08-05T05:12:03.143Z,100291.63
2022-08-05T05:17:07.452Z,100304.38
2022-08-05T05:22:22.628Z,100272.38
2022-08-05T05:27:45.684Z,100292.50
2022-08-05T05:32:50.485Z,100262.81
2022-08-05T05:38:00.380Z,100277.00
2022-08-05T05:43:03.811Z,100267.47
2022-08-05T05:48:08.808Z,100275.06
2022-08-05T05:53:21.578Z,100278.16
2022-08-05T05:58:31.501Z,100274.81
2022-08-05T06:03:53.808Z,100270.59
2022-08-05T06:08:55.205Z,100259.78
2022-08-05T06:13:57.008Z,100254.91
2022-08-05T06:19:00.008Z,100258.03
2022-08-05T06:24:02.537Z,100283.88
2022-08-05T06:29:25.524Z,100282.22
2022-08-05T06:34:27.713Z,100286.28
2022-08-05T06:39:29.317Z,100292.72
2022-08-05T06:44:32.827Z,100284.25
2022-08-05T06:50:00.848Z,100282.97
2022-08-05T06:54:55.697Z,100300.41
2022-08-05T06:59:58.338Z,100292.00
2022-08-05T07:04:59.870Z,100305.78
2022-08-05T07:10:03.525Z,100304.03
2022-08-05T07:15:34.372Z,100315.56
2022-08-05T07:20:45.696Z,100313.28
2022-08-05T07:25:55.260Z,100320.84
2022-08-05T07:30:57.992Z,100322.47
2022-08-05T07:36:19.641Z,100305.19
2022-08-05T07:42:07.743Z,100309.25
2022-08-05T07:46:48.180Z,100300.78
2022-08-05T07:51:54.629Z,100296.72
2022-08-05T07:57:13.772Z,100298.56
2022-08-05T08:02:18.294Z,100300.38
2022-08-05T08:07:22.784Z,100278.28
2022-08-05T08:12:33.410Z,100244.63
2022-08-05T08:17:43.984Z,100221.03
2022-08-05T08:22:56.956Z,100218.56
2022-08-05T08:27:59.547Z,100208.13
2022-08-05T08:33:04.372Z,100195.22
2022-08-05T08:38:06.304Z,100181.22
2022-08-05T08:44:56.517Z,100177.09
2022-08-05T08:49:03.031Z,100169.50
2022-08-05T08:53:58.068Z,100173.34
2022-08-05T08:59:00.704Z,100178.88
2022-08-05T09:04:02.184Z,100182.09
2022-08-05T09:09:03.878Z,100177.78
2022-08-05T09:14:54.520Z,100183.78
2022-08-05T09:19:27.985Z,100184.38
2022-08-05T09:24:38.503Z,100183.97
2022-08-05T09:29:47.581Z,100185.03
2022-08-05T09:34:55.055Z,100179.94
2022-08-05T09:39:56.618Z,100171.81
2022-08-05T09:46:05.080Z,100175.13
2022-08-05T09:50:38.585Z,100180.25
2022-08-05T09:55:58.237Z,100174.63
2022-08-05T10:01:13.456Z,100180.47
2022-08-05T10:06:20.659Z,100166.59
2022-08-05T10:11:22.823Z,100175.19
2022-08-05T10:16:30.248Z,100173.53
2022-08-05T10:21:35.331Z,100179.03
2022-08-05T10:26:51.578Z,100174.72
2022-08-05T10:32:53.301Z,100170.44
2022-08-05T10:37:15.946Z,100169.88
2022-08-05T10:42:33.688Z,100172.28
2022-08-05T10:47:41.048Z,100191.44
2022-08-05T10:52:58.569Z,100188.63
2022-08-05T10:58:11.348Z,100186.44
2022-08-05T11:03:26.006Z,100182.94
2022-08-05T11:08:37.327Z,100176.59
2022-08-05T11:13:54.876Z,100187.00
2022-08-05T11:20:16.826Z,100186.03
2022-08-05T11:26:05.322Z,100186.28
2022-08-05T11:30:58.227Z,100185.75
2022-08-05T11:36:02.805Z,100184.25
2022-08-05T11:41:57.849Z,100180.66
2022-08-05T11:46:58.070Z,100188.72
2022-08-05T11:52:00.565Z,100188.84
2022-08-05T11:57:07.699Z,100189.97
2022-08-05T12:02:30.488Z,100198.63
2022-08-05T12:08:08.074Z,100194.13
2022-08-05T12:13:04.228Z,100183.31
2022-08-05T12:18:39.703Z,100181.66
2022-08-05T12:23:54.483Z,100191.28
2022-08-05T12:28:55.935Z,100184.75
2022-08-05T12:33:58.265Z,100185.06
2022-08-05T12:39:00.333Z,100185.50
2022-08-05T12:44:05.161Z,100180.84
2022-08-05T12:49:14.951Z,100197.56
2022-08-05T12:54:23.342Z,100189.50
2022-08-05T12:59:46.697Z,100189.50
2022-08-05T13:04:52.555Z,100195.31
2022-08-05T13:09:58.919Z,100207.31
2022-08-05T13:15:07.486Z,100207.53
2022-08-05T13:20:16.505Z,100206.66
2022-08-05T13:25:21.909Z,100205.84
2022-08-05T13:30:35.699Z,100210.75
2022-08-05T13:35:47.102Z,100206.59
2022-08-05T13:40:53.180Z,100216.66
2022-08-05T13:45:54.696Z,100212.06
2022-08-05T13:51:05.474Z,100211.88
2022-08-05T13:56:09.574Z,100203.91
2022-08-05T14:01:21.956Z,100210.31
2022-08-05T14:06:29.056Z,100216.59
2022-08-05T14:11:31.359Z,100212.66
2022-08-05T14:16:33.249Z,100215.50
2022-08-05T14:22:10.387Z,100214.94
2022-08-05T14:27:17.625Z,100223.28
2022-08-05T14:32:26.844Z,100217.34
2022-08-05T14:37:44.867Z,100220.53
2022-08-05T14:42:49.690Z,100229.22
2022-08-05T14:48:03.318Z,100223.13
2022-08-05T14:53:07.629Z,100222.97
2022-08-05T14:58:11.622Z,100222.59
2022-08-05T15:03:14.006Z,100227.13
2022-08-05T15:08:38.065Z,100232.41
2022-08-05T15:13:46.299Z,100234.66
2022-08-05T15:18:51.731Z,100246.09
2022-08-05T15:23:54.040Z,100251.06
2022-08-05T15:28:55.488Z,100253.09
2022-08-05T15:34:18.593Z,100258.22
2022-08-05T15:41:04.090Z,100255.25
2022-08-05T15:44:44.243Z,100276.19
2022-08-05T15:49:56.729Z,100278.78
2022-08-05T15:55:00.526Z,100277.09
2022-08-05T16:00:08.057Z,100286.66
2022-08-05T16:05:09.789Z,100292.53
2022-08-05T16:10:12.920Z,100295.28
2022-08-05T16:15:18.364Z,100300.66
2022-08-05T16:20:20.402Z,100304.19
2022-08-05T16:25:21.842Z,100318.63
2022-08-05T16:30:36.207Z,100317.91
2022-08-05T16:35:42.381Z,100327.53
2022-08-05T16:40:51.761Z,100334.84
2022-08-05T16:46:03.727Z,100345.84
2022-08-05T16:51:10.865Z,100372.78
2022-08-05T16:56:12.590Z,100366.38
2022-08-05T17:01:14.500Z,100383.00
2022-08-05T17:06:16.545Z,100392.28
2022-08-05T17:11:18.250Z,100404.22
2022-08-05T17:16:32.466Z,100397.00
2022-08-05T17:21:36.715Z,100410.72
2022-08-05T17:26:39.110Z,100425.44
2022-08-05T17:31:58.304Z,100424.06
2022-08-05T17:37:00.707Z,100445.13
2022-08-05T17:42:19.628Z,100446.81
2022-08-05T17:47:24.766Z,100445.38
2022-08-05T17:52:27.910Z,100460.59
2022-08-05T17:57:29.993Z,100477.88
2022-08-05T18:02:34.187Z,100476.59
2022-08-05T18:07:41.582Z,100478.72
2022-08-05T18:12:43.613Z,100489.38
2022-08-05T18:18:00.240Z,100503.16
2022-08-05T18:23:11.965Z,100520.22
2022-08-05T18:28:16.168Z,100521.03
2022-08-05T18:33:23.112Z,100526.09
2022-08-05T18:38:26.019Z,100529.38
2022-08-05T18:43:28.063Z,100536.38
2022-08-05T18:48:33.531Z,100555.31
2022-08-05T18:53:34.991Z,100576.00
2022-08-05T18:58:47.280Z,100594.63
2022-08-05T19:03:53.025Z,100608.38
2022-08-05T19:08:57.229Z,100623.44
2022-08-05T19:14:01.031Z,100623.63
2022-08-05T19:19:06.669Z,100636.75
2022-08-05T19:24:13.896Z,100639.34
2022-08-05T19:29:15.365Z,100647.44
2022-08-05T19:34:20.658Z,100647.69
2022-08-05T19:39:23.430Z,100657.34
2022-08-05T19:44:30.266Z,100669.13
2022-08-05T19:49:31.732Z,100682.38
2022-08-05T19:54:34.647Z,100685.19
2022-08-05T19:59:55.960Z,100686.84
2022-08-05T20:05:00.056Z,100707.13
2022-08-05T20:10:04.832Z,100721.94
2022-08-05T20:15:13.810Z,100726.19
2022-08-05T20:20:15.571Z,100741.69
2022-08-05T20:25:17.073Z,100734.94
2022-08-05T20:30:19.784Z,100730.63
2022-08-05T20:35:21.443Z,100740.81
2022-08-05T20:40:23.467Z,100743.34
2022-08-05T20:45:25.083Z,100744.34
2022-08-05T20:50:46.895Z,100752.16
2022-08-05T20:55:56.767Z,100742.59
2022-08-05T21:01:09.910Z,100751.44
2022-08-05T21:06:27.673Z,100762.44
2022-08-05T21:12:10.797Z,100752.88
2022-08-05T21:16:51.802Z,100758.91
2022-08-05T21:21:53.212Z,100758.81
2022-08-05T21:26:58.485Z,100765.22
2022-08-05T21:32:02.368Z,100768.59
2022-08-05T21:37:04.851Z,100770.66
2022-08-05T21:42:07.016Z,100787.53
2022-08-05T21:47:55.018Z,100785.16
2022-08-05T21:52:49.866Z,100789.56
2022-08-05T21:57:51.796Z,100786.59
2022-08-05T22:02:55.097Z,100791.78
2022-08-05T22:07:59.259Z,100809.75
2022-08-05T22:13:08.640Z,100805.63
2022-08-05T22:18:12.251Z,100822.28
2022-08-05T22:24:00.905Z,100825.38
2022-08-05T22:28:55.713Z,100835.75
2022-08-05T22:34:01.210Z,100842.00
2022-08-05T22:39:09.117Z,100849.78
2022-08-05T22:44:12.044Z,100849.91
2022-08-05T22:50:17.309Z,100854.63
2022-08-05T22:54:36.532Z,100862.53
2022-08-05T22:59:48.576Z,100874.75
2022-08-05T23:04:53.518Z,100880.00
2022-08-05T23:10:00.962Z,100870.75
2022-08-05T23:15:08.854Z,100887.56
2022-08-05T23:20:17.923Z,100896.69
2022-08-05T23:25:53.093Z,100893.78
2022-08-05T23:30:43.398Z,100903.25
2022-08-05T23:35:45.125Z,100909.63
2022-08-05T23:40:50.003Z,100926.59
2022-08-05T23:45:51.975Z,100922.03
2022-08-05T23:50:53.452Z,100927.44
2022-08-05T23:55:54.951Z,100932.63
